Pahoa, HI

6:14 AM HST on April 19, 2015 (GMT -1000)
Hawaiian Shores Rec. (Malolo St.) | | Change Station
CLOSE
Current Station
Personal Weather Station
Location: Pahoa, HI
Elevation: 217 ft
Nearby Weather Stations

Elev 217 ft 19.54 °N, 154.90 °W | Updated 7 seconds ago

Overcast
Overcast
68.0 °F
Feels Like 68.0 °F
N
1.3
Wind Variable Wind from West
Gusts 2.5 mph

Today
High -- | Low -- °F
--% Chance of Precip.
Yesterday
High -- | Low -- °F
Precip. -- in
5:59 AM 6:38 PM
New Moon, 1% visible
Pressure 30.14 in
Visibility 10.0 miles
Clouds Few 1000 ft
Mostly Cloudy 1800 ft
Overcast 2300 ft
Dew Point 67 °F
Humidity 95%
Rainfall 0.18 in
Snow Depth Not available.
UV 0.0 out of 12
Pollen Not available.
Air Quality Not available.
Flu Activity Regional
SPECI PHTO 191600Z 23006KT 10SM FEW010 BKN018 OVC023 19/18 A3014 RMK AO2 T01940178

More Conditions Fewer Conditions

Pressure 30.14 in
Visibility 10.0 miles
Clouds Few 1000 ft
Mostly Cloudy 1800 ft
Overcast 2300 ft
Dew Point 67 °F
Humidity 95%
Rainfall 0.18 in
Snow Depth Not available.
UV 0.0 out of 12
Pollen Not available.
Air Quality Not available.
Flu Activity Regional
SPECI PHTO 191600Z 23006KT 10SM FEW010 BKN018 OVC023 19/18 A3014 RMK AO2 T01940178

More Conditions Fewer Conditions

10-Day Weather Forecast

Almanac

Astronomy

Apr. 19, 2015 Rise Set
Actual Time
Civil Twilight
Nautical Twilight
Astronomical Twilight
Moon
Length of Visible Light
Length of Day
Tomorrow will be .
, % of the Moon is Illuminated

Today's Extremes

State Highs State Lows

Community

WunderPhotos

Upload Photos

1,814,842 photos uploaded!

WunderBlogs® & News

Nearby

Air Quality

  Air Quality AQ Index Pollutant
Not available.

Snow Depth

Station Depth Elevation

Earthquake Activity

City Distance Mag. Time & Date
Minimum magnitude displayed is 2.5.

Coastal Water Temperatures

Place Temperature

Stations

Nearby Weather Stations

Station Location Temp. Windchill Dew Point Humidity Wind Precip. Elev Updated Type